Etusivu
METAR-TAF:

METAR-TAF

Lentoasemat :

Shreveport, Louisiana, Yhdysvallat

Leveyspiiri: 32-32-33N, Pituuspiiri: 093-44-41W, korkeus merenpinnasta: 54 m

Tämänhetkinen sää

Tämä raportti tehtiin 35 minuuttia sitten, kello 20.53 UTC
Tuuli 4 kn pohjoisen/luoteesta
Lämpötila 16°C
Kosteus 27%
Ilmanpaine 1021 hPa
Näkyvyys: 16.1 km
selkeää

METAR: KDTN 162053Z 33004KT 10SM CLR 16/M03 A3015 RMK AO2 SLP211 T01561033 56034

Aika: 15:28 (21:28 UTC)


TAF: puuttuu

Säähavainnot ja -ennusteet yli 4000 lentoasemalta (METAR- ja TAF-raportit).

Käytössä olevat sääasemat on merkitty karttaan keltaisilla ja punaisilla pisteillä.

Aseta hiiri pisteen päälle nähdäksesi sääaseman nimen.

Klikkaa sitten nähdäksesi säähavainnot ja -ennusteet.

Kartan vaihtaminen: klikkaa mustalla rastilla varustettuja vihreitä pisteitä, niin voit zoomata sisään; viivalla varustettua vihreää pistettä, niin voit zoomata ulos tai vihreitä nuolia, niin pääset viereisille kartoille.


METAR-TAF: